createdAt,value
2023-03-19T00:00:55.444Z,12.70
2023-03-19T00:03:23.227Z,12.70
2023-03-19T00:05:53.291Z,12.70
2023-03-19T00:08:22.755Z,12.80
2023-03-19T00:10:51.146Z,12.80
2023-03-19T00:13:20.075Z,12.80
2023-03-19T00:15:47.895Z,12.80
2023-03-19T00:18:16.226Z,12.80
2023-03-19T00:20:45.143Z,12.80
2023-03-19T00:23:12.979Z,12.80
2023-03-19T00:25:40.847Z,12.80
2023-03-19T00:28:09.267Z,12.80
2023-03-19T00:30:37.509Z,12.80
2023-03-19T00:33:05.223Z,12.80
2023-03-19T00:35:34.086Z,12.70
2023-03-19T00:38:02.084Z,12.70
2023-03-19T00:40:33.996Z,12.70
2023-03-19T00:43:01.748Z,12.80
2023-03-19T00:45:30.856Z,12.70
2023-03-19T00:47:58.736Z,12.60
2023-03-19T00:50:27.055Z,12.50
2023-03-19T00:52:54.774Z,12.50
2023-03-19T00:55:22.609Z,12.50
2023-03-19T00:57:50.820Z,12.50
2023-03-19T01:00:20.109Z,12.50
2023-03-19T01:02:47.935Z,12.40
2023-03-19T01:05:16.019Z,12.40
2023-03-19T01:07:43.857Z,12.40
2023-03-19T01:10:12.312Z,12.40
2023-03-19T01:12:40.140Z,12.50
2023-03-19T01:15:09.063Z,12.50
2023-03-19T01:17:37.286Z,12.40
2023-03-19T01:20:13.295Z,12.40
2023-03-19T01:22:42.592Z,12.40
2023-03-19T01:25:13.879Z,12.30
2023-03-19T01:27:48.084Z,12.30
2023-03-19T01:30:16.762Z,12.30
2023-03-19T01:33:08.328Z,12.40
2023-03-19T01:35:53.165Z,12.40
2023-03-19T01:38:23.967Z,12.40
2023-03-19T01:40:52.656Z,12.50
2023-03-19T01:43:30.824Z,12.60
2023-03-19T01:46:36.375Z,12.60
2023-03-19T01:49:21.583Z,12.50
2023-03-19T01:51:57.348Z,12.50
2023-03-19T01:54:37.186Z,12.40
2023-03-19T01:57:20.517Z,12.40
2023-03-19T02:00:21.737Z,12.20
2023-03-19T02:02:54.353Z,12.20
2023-03-19T02:05:46.670Z,12.10
2023-03-19T02:08:19.194Z,11.90
2023-03-19T02:10:47.997Z,11.90
2023-03-19T02:13:16.238Z,11.90
2023-03-19T02:15:43.988Z,11.90
2023-03-19T02:18:12.131Z,11.80
2023-03-19T02:21:23.776Z,11.80
2023-03-19T02:24:03.380Z,11.90
2023-03-19T02:26:51.752Z,11.80
2023-03-19T02:29:19.831Z,11.90
2023-03-19T02:31:48.075Z,12.00
2023-03-19T02:34:21.987Z,12.00
2023-03-19T02:37:11.905Z,12.00
2023-03-19T02:39:50.907Z,12.00
2023-03-19T02:42:21.637Z,11.90
2023-03-19T02:44:49.347Z,11.90
2023-03-19T02:47:17.668Z,11.80
2023-03-19T02:49:46.124Z,11.70
2023-03-19T02:52:14.444Z,11.70
2023-03-19T02:54:42.170Z,11.60
2023-03-19T02:57:10.236Z,11.50
2023-03-19T02:59:39.045Z,11.40
2023-03-19T03:02:07.163Z,11.40
2023-03-19T03:04:37.128Z,11.40
2023-03-19T03:07:06.294Z,11.40
2023-03-19T03:09:34.615Z,11.40
2023-03-19T03:12:03.210Z,11.30
2023-03-19T03:14:31.023Z,11.20
2023-03-19T03:16:58.889Z,11.20
2023-03-19T03:19:27.075Z,11.10
2023-03-19T03:21:55.287Z,11.10
2023-03-19T03:24:23.119Z,11.00
2023-03-19T03:26:51.077Z,11.00
2023-03-19T03:29:21.561Z,11.00
2023-03-19T03:31:49.412Z,11.00
2023-03-19T03:34:18.083Z,10.80
2023-03-19T03:36:47.036Z,10.80
2023-03-19T03:39:15.005Z,10.80
2023-03-19T03:41:43.172Z,10.70
2023-03-19T03:44:11.015Z,10.70
2023-03-19T03:46:41.258Z,10.70
2023-03-19T03:49:09.581Z,10.70
2023-03-19T03:51:37.546Z,10.70
2023-03-19T03:54:05.991Z,10.70
2023-03-19T03:56:34.196Z,10.70
2023-03-19T03:59:02.268Z,10.70
2023-03-19T04:01:30.960Z,10.80
2023-03-19T04:03:58.690Z,10.80
2023-03-19T04:06:27.593Z,10.80
2023-03-19T04:09:13.691Z,10.80
2023-03-19T04:11:42.023Z,10.80
2023-03-19T04:14:10.094Z,10.90
2023-03-19T04:16:39.787Z,11.00
2023-03-19T04:19:07.712Z,11.10
2023-03-19T04:21:35.781Z,11.10
2023-03-19T04:24:04.594Z,11.10
2023-03-19T04:26:32.656Z,11.10
2023-03-19T04:29:00.506Z,11.20
2023-03-19T04:31:29.266Z,11.20
2023-03-19T04:33:57.627Z,11.20
2023-03-19T04:36:25.716Z,11.30
2023-03-19T04:38:53.697Z,11.30
2023-03-19T04:41:22.716Z,11.30
2023-03-19T04:44:04.840Z,11.30
2023-03-19T04:46:34.005Z,11.30
2023-03-19T04:49:02.568Z,11.20
2023-03-19T04:51:31.000Z,11.30
2023-03-19T04:53:58.856Z,11.30
2023-03-19T04:56:28.006Z,11.30
2023-03-19T04:58:56.926Z,11.30
2023-03-19T05:01:25.163Z,11.30
2023-03-19T05:04:03.210Z,11.30
2023-03-19T05:06:33.298Z,11.30
2023-03-19T05:09:01.496Z,11.30
2023-03-19T05:11:29.338Z,11.30
2023-03-19T05:14:03.307Z,11.30
2023-03-19T05:16:40.643Z,11.30
2023-03-19T05:19:08.947Z,11.40
2023-03-19T05:21:37.879Z,11.30
2023-03-19T05:24:06.914Z,11.30
2023-03-19T05:26:38.246Z,11.20
2023-03-19T05:29:26.729Z,11.30
2023-03-19T05:32:10.540Z,11.30
2023-03-19T05:34:39.087Z,11.30
2023-03-19T05:37:08.739Z,11.30
2023-03-19T05:39:36.829Z,11.30
2023-03-19T05:42:08.502Z,11.30
2023-03-19T05:44:36.849Z,11.30
2023-03-19T05:47:27.103Z,11.30
2023-03-19T05:49:57.697Z,11.30
2023-03-19T05:52:25.902Z,11.30
2023-03-19T05:54:57.119Z,11.30
2023-03-19T05:57:46.308Z,11.30
2023-03-19T06:00:21.223Z,11.30
2023-03-19T06:02:48.963Z,11.30
2023-03-19T06:05:36.118Z,11.30
2023-03-19T06:08:12.950Z,11.30
2023-03-19T06:10:54.712Z,11.30
2023-03-19T06:13:23.036Z,11.40
2023-03-19T06:15:56.790Z,11.40
2023-03-19T06:18:30.121Z,11.40
2023-03-19T06:20:57.855Z,11.50
2023-03-19T06:23:26.201Z,11.40
2023-03-19T06:25:54.009Z,11.50
2023-03-19T06:28:24.490Z,11.50
2023-03-19T06:30:56.186Z,11.50
2023-03-19T06:33:44.064Z,11.50
2023-03-19T06:36:12.030Z,11.60
2023-03-19T06:38:40.232Z,11.60
2023-03-19T06:41:08.074Z,11.60
2023-03-19T06:43:41.429Z,11.70
2023-03-19T06:46:11.718Z,11.70
2023-03-19T06:48:39.644Z,11.70
2023-03-19T06:51:07.958Z,11.70
2023-03-19T06:53:36.052Z,11.70
2023-03-19T06:56:04.161Z,11.70
2023-03-19T06:58:31.981Z,11.70
2023-03-19T07:01:01.462Z,11.70
2023-03-19T07:03:29.341Z,11.70
2023-03-19T07:05:57.175Z,11.70
2023-03-19T07:08:29.611Z,11.70
2023-03-19T07:11:02.938Z,11.70
2023-03-19T07:13:30.913Z,11.70
2023-03-19T07:15:59.463Z,11.80
2023-03-19T07:18:27.306Z,11.80
2023-03-19T07:20:55.149Z,11.80
2023-03-19T07:23:23.246Z,11.90
2023-03-19T07:25:51.190Z,11.90
2023-03-19T07:28:18.923Z,11.90
2023-03-19T07:30:46.649Z,11.90
2023-03-19T07:33:14.553Z,11.90
2023-03-19T07:35:42.368Z,11.90
2023-03-19T07:38:10.410Z,12.00
2023-03-19T07:40:40.069Z,12.00
2023-03-19T07:43:11.251Z,12.10
2023-03-19T07:45:39.010Z,12.10
2023-03-19T07:48:06.955Z,12.20
2023-03-19T07:50:35.479Z,12.20
2023-03-19T07:53:03.817Z,12.30
2023-03-19T07:55:31.912Z,12.40
2023-03-19T07:58:00.096Z,12.40
2023-03-19T08:00:27.945Z,12.50
2023-03-19T08:02:55.799Z,12.50
2023-03-19T08:05:23.514Z,12.60
2023-03-19T08:07:51.709Z,12.60
2023-03-19T08:10:19.802Z,12.60
2023-03-19T08:12:47.881Z,12.60
2023-03-19T08:15:15.955Z,12.60
2023-03-19T08:17:43.680Z,12.60
2023-03-19T08:20:18.503Z,12.70
2023-03-19T08:22:51.023Z,12.60
2023-03-19T08:25:19.209Z,12.60
2023-03-19T08:27:47.306Z,12.50
2023-03-19T08:30:15.851Z,12.50
2023-03-19T08:32:47.210Z,12.50
2023-03-19T08:35:15.267Z,12.50
2023-03-19T08:37:43.103Z,12.50
2023-03-19T08:40:12.160Z,12.50
2023-03-19T08:42:44.376Z,12.50
2023-03-19T08:45:15.032Z,12.60
2023-03-19T08:47:43.830Z,12.60
2023-03-19T08:50:12.402Z,12.60
2023-03-19T08:52:40.473Z,12.60
2023-03-19T08:55:09.532Z,12.70
2023-03-19T08:57:37.360Z,12.80
2023-03-19T09:00:06.884Z,12.80
2023-03-19T09:02:34.724Z,12.90
2023-03-19T09:05:02.566Z,13.00
2023-03-19T09:07:30.649Z,13.10
2023-03-19T09:09:58.489Z,13.20
2023-03-19T09:12:26.573Z,13.10
2023-03-19T09:14:54.297Z,13.20
2023-03-19T09:17:22.024Z,13.10
2023-03-19T09:19:49.860Z,13.10
2023-03-19T09:22:17.591Z,13.10
2023-03-19T09:24:45.549Z,13.10
2023-03-19T09:27:13.392Z,13.20
2023-03-19T09:29:41.598Z,13.20
2023-03-19T09:32:09.672Z,13.20
2023-03-19T09:34:37.754Z,13.20
2023-03-19T09:37:05.719Z,13.20
2023-03-19T09:39:33.683Z,13.30
2023-03-19T09:42:12.566Z,13.30
2023-03-19T09:44:45.482Z,13.30
2023-03-19T09:47:32.731Z,13.40
2023-03-19T09:50:18.468Z,13.40
2023-03-19T09:52:49.901Z,13.50
2023-03-19T09:55:51.609Z,13.60
2023-03-19T09:58:25.059Z,13.70
2023-03-19T10:00:54.340Z,13.70
2023-03-19T10:03:31.797Z,13.60
2023-03-19T10:06:25.555Z,13.60
2023-03-19T10:09:17.149Z,13.60
2023-03-19T10:12:06.593Z,13.60
2023-03-19T10:14:44.666Z,13.50
2023-03-19T10:17:27.121Z,13.60
2023-03-19T10:20:17.166Z,13.60
2023-03-19T10:22:55.337Z,13.60
2023-03-19T10:25:27.724Z,13.60
2023-03-19T10:28:17.168Z,13.70
2023-03-19T10:30:58.343Z,13.80
2023-03-19T10:33:46.130Z,13.90
2023-03-19T10:36:16.204Z,14.00
2023-03-19T10:38:44.666Z,14.00
2023-03-19T10:41:49.120Z,14.10
2023-03-19T10:44:34.537Z,14.20
2023-03-19T10:47:24.778Z,14.30
2023-03-19T10:49:52.959Z,14.40
2023-03-19T10:52:28.849Z,14.30
2023-03-19T10:55:30.521Z,14.30
2023-03-19T10:58:20.696Z,14.30
2023-03-19T11:00:55.745Z,14.30
2023-03-19T11:03:55.176Z,14.40
2023-03-19T11:06:37.497Z,14.50
2023-03-19T11:09:08.101Z,14.60
2023-03-19T11:11:56.693Z,14.70
2023-03-19T11:14:33.817Z,14.80
2023-03-19T11:17:20.937Z,14.80
2023-03-19T11:19:59.834Z,14.90
2023-03-19T11:22:33.735Z,14.90
2023-03-19T11:25:24.788Z,15.00
2023-03-19T11:28:26.501Z,15.00
2023-03-19T11:31:34.118Z,15.00
2023-03-19T11:34:32.242Z,15.20
2023-03-19T11:37:28.278Z,15.40
2023-03-19T11:40:37.313Z,15.50
2023-03-19T11:43:38.371Z,15.60
2023-03-19T11:46:46.766Z,15.80
2023-03-19T11:49:37.294Z,15.80
2023-03-19T11:52:27.209Z,15.80
2023-03-19T11:55:25.173Z,15.80
2023-03-19T11:58:20.259Z,15.80
2023-03-19T12:00:55.899Z,15.80
2023-03-19T12:04:21.231Z,15.80
2023-03-19T12:07:42.495Z,15.70
2023-03-19T12:10:44.758Z,15.70
2023-03-19T12:13:52.795Z,15.70
2023-03-19T12:16:53.342Z,15.60
2023-03-19T12:19:32.036Z,15.60
2023-03-19T12:22:26.387Z,14.90
2023-03-19T12:25:09.191Z,14.60
2023-03-19T12:27:58.941Z,14.20
2023-03-19T12:31:27.687Z,12.90
2023-03-19T12:34:36.520Z,11.60
2023-03-19T12:37:25.989Z,11.20
2023-03-19T12:40:14.576Z,11.20
2023-03-19T12:42:43.466Z,11.20
2023-03-19T12:45:29.512Z,11.30
2023-03-19T12:48:22.375Z,11.40
2023-03-19T12:50:54.229Z,11.30
2023-03-19T12:53:56.428Z,11.30
2023-03-19T12:57:01.410Z,11.40
2023-03-19T12:59:46.394Z,11.50
2023-03-19T13:02:47.942Z,11.70
2023-03-19T13:05:15.404Z,11.90
2023-03-19T13:08:06.637Z,11.80
2023-03-19T13:10:36.503Z,12.00
2023-03-19T13:13:50.487Z,12.10
2023-03-19T13:16:45.308Z,12.30
2023-03-19T13:19:40.305Z,12.40
2023-03-19T13:22:14.075Z,12.30
2023-03-19T13:24:44.617Z,12.20
2023-03-19T13:27:35.671Z,12.20
2023-03-19T13:30:18.814Z,12.30
2023-03-19T13:32:54.398Z,12.40
2023-03-19T13:35:36.572Z,12.40
2023-03-19T13:38:34.280Z,12.50
2023-03-19T13:41:02.484Z,12.50
2023-03-19T13:43:29.936Z,12.60
2023-03-19T13:46:12.745Z,12.70
2023-03-19T13:48:45.747Z,12.80
2023-03-19T13:51:17.819Z,12.90
2023-03-19T13:54:12.769Z,13.00
2023-03-19T13:56:58.547Z,13.20
2023-03-19T13:59:43.374Z,13.20
2023-03-19T14:02:23.032Z,13.20
2023-03-19T14:05:21.433Z,13.20
2023-03-19T14:07:54.692Z,13.30
2023-03-19T14:10:27.859Z,13.40
2023-03-19T14:13:16.863Z,13.60
2023-03-19T14:15:50.740Z,13.60
2023-03-19T14:18:22.313Z,13.60
2023-03-19T14:21:08.865Z,13.60
2023-03-19T14:23:52.618Z,13.60
2023-03-19T14:26:28.792Z,13.60
2023-03-19T14:29:05.956Z,13.50
2023-03-19T14:31:55.848Z,13.60
2023-03-19T14:34:32.207Z,13.70
2023-03-19T14:37:35.976Z,13.70
2023-03-19T14:40:25.124Z,13.80
2023-03-19T14:43:10.232Z,13.80
2023-03-19T14:46:12.899Z,13.70
2023-03-19T14:49:43.497Z,13.80
2023-03-19T14:52:26.708Z,13.80
2023-03-19T14:55:14.597Z,13.90
2023-03-19T14:57:43.354Z,13.90
2023-03-19T15:00:18.164Z,13.80
2023-03-19T15:02:50.166Z,13.80
2023-03-19T15:05:34.029Z,13.70
2023-03-19T15:08:04.413Z,13.60
2023-03-19T15:11:14.378Z,13.50
2023-03-19T15:14:34.611Z,13.30
2023-03-19T15:17:21.388Z,13.10
2023-03-19T15:19:49.781Z,13.10
2023-03-19T15:22:26.181Z,13.00
2023-03-19T15:24:53.993Z,13.10
2023-03-19T15:27:27.220Z,13.00
2023-03-19T15:30:02.093Z,13.00
2023-03-19T15:33:10.558Z,13.00
2023-03-19T15:35:36.323Z,12.80
2023-03-19T15:38:10.589Z,12.80
2023-03-19T15:40:40.642Z,12.70
2023-03-19T15:43:11.442Z,12.60
2023-03-19T15:45:40.853Z,12.70
2023-03-19T15:48:23.910Z,12.70
2023-03-19T15:50:58.351Z,12.70
2023-03-19T15:53:31.454Z,12.50
2023-03-19T15:56:02.409Z,12.40
2023-03-19T15:58:37.136Z,12.30
2023-03-19T16:01:09.825Z,12.30
2023-03-19T16:03:44.839Z,12.20
2023-03-19T16:06:24.473Z,12.10
2023-03-19T16:08:55.551Z,11.90
2023-03-19T16:11:41.941Z,11.60
2023-03-19T16:14:42.256Z,11.50
2023-03-19T16:17:15.839Z,11.40
2023-03-19T16:20:01.989Z,11.40
2023-03-19T16:22:32.667Z,11.50
2023-03-19T16:25:02.381Z,11.60
2023-03-19T16:27:39.101Z,11.60
2023-03-19T16:30:27.793Z,11.60
2023-03-19T16:33:00.952Z,11.70
2023-03-19T16:35:31.563Z,11.70
2023-03-19T16:38:24.084Z,11.80
2023-03-19T16:41:33.868Z,11.90
2023-03-19T16:44:16.656Z,12.00
2023-03-19T16:46:44.900Z,12.10
2023-03-19T16:49:12.498Z,12.00
2023-03-19T16:51:40.199Z,12.00
2023-03-19T16:54:12.694Z,12.00
2023-03-19T16:56:40.513Z,12.00
2023-03-19T16:59:19.770Z,12.00
2023-03-19T17:01:47.294Z,11.90
2023-03-19T17:04:17.574Z,11.90
2023-03-19T17:06:45.595Z,11.90
2023-03-19T17:09:13.122Z,11.90
2023-03-19T17:11:42.986Z,11.90
2023-03-19T17:14:21.834Z,11.90
2023-03-19T17:16:54.198Z,11.90
2023-03-19T17:19:26.284Z,11.90
2023-03-19T17:21:58.633Z,11.80
2023-03-19T17:24:33.325Z,11.80
2023-03-19T17:27:04.303Z,11.80
2023-03-19T17:29:33.130Z,11.80
2023-03-19T17:32:04.172Z,11.70
2023-03-19T17:34:32.026Z,11.70
2023-03-19T17:37:06.348Z,11.70
2023-03-19T17:39:34.101Z,11.70
2023-03-19T17:42:01.598Z,11.70
2023-03-19T17:44:29.420Z,11.70
2023-03-19T17:46:57.256Z,11.70
2023-03-19T17:49:32.389Z,11.70
2023-03-19T17:52:00.243Z,11.70
2023-03-19T17:54:27.956Z,11.70
2023-03-19T17:56:56.084Z,11.80
2023-03-19T17:59:24.116Z,11.70
2023-03-19T18:01:52.018Z,11.70
2023-03-19T18:04:21.559Z,11.70
2023-03-19T18:06:55.294Z,11.70
2023-03-19T18:09:28.395Z,11.70
2023-03-19T18:11:56.047Z,11.70
2023-03-19T18:14:23.591Z,11.70
2023-03-19T18:16:51.359Z,11.80
2023-03-19T18:19:28.082Z,11.70
2023-03-19T18:21:55.619Z,11.60
2023-03-19T18:24:23.625Z,11.60
2023-03-19T18:26:51.778Z,11.60
2023-03-19T18:29:19.448Z,11.60
2023-03-19T18:31:50.264Z,11.60
2023-03-19T18:34:18.284Z,11.70
2023-03-19T18:36:45.863Z,11.60
2023-03-19T18:39:16.047Z,11.60
2023-03-19T18:41:44.203Z,11.60
2023-03-19T18:44:12.330Z,11.50
2023-03-19T18:46:41.758Z,11.40
2023-03-19T18:49:24.796Z,11.40
2023-03-19T18:52:08.650Z,11.30
2023-03-19T18:54:36.218Z,11.20
2023-03-19T18:57:03.980Z,11.20
2023-03-19T18:59:33.556Z,11.20
2023-03-19T19:02:28.398Z,11.10
2023-03-19T19:04:55.990Z,11.10
2023-03-19T19:07:23.621Z,11.00
2023-03-19T19:09:51.260Z,10.90
2023-03-19T19:12:19.476Z,10.80
2023-03-19T19:14:47.594Z,10.90
2023-03-19T19:17:23.962Z,10.90
2023-03-19T19:19:51.581Z,10.90
2023-03-19T19:22:20.234Z,10.90
2023-03-19T19:24:47.812Z,10.90
2023-03-19T19:27:20.152Z,10.80
2023-03-19T19:29:49.006Z,10.80
2023-03-19T19:32:25.737Z,10.80
2023-03-19T19:34:53.751Z,10.70
2023-03-19T19:37:23.416Z,10.60
2023-03-19T19:39:51.368Z,10.50
2023-03-19T19:42:21.969Z,10.40
2023-03-19T19:44:55.924Z,10.30
2023-03-19T19:47:23.472Z,10.30
2023-03-19T19:49:50.996Z,10.30
2023-03-19T19:52:19.541Z,10.30
2023-03-19T19:54:47.605Z,10.20
2023-03-19T19:57:24.918Z,10.20
2023-03-19T19:59:53.935Z,10.20
2023-03-19T20:02:29.426Z,10.20
2023-03-19T20:04:58.464Z,10.20
2023-03-19T20:07:27.064Z,10.20
2023-03-19T20:09:54.655Z,10.20
2023-03-19T20:12:30.934Z,10.30
2023-03-19T20:14:59.522Z,10.20
2023-03-19T20:17:27.622Z,10.20
2023-03-19T20:19:55.232Z,10.20
2023-03-19T20:22:22.761Z,10.20
2023-03-19T20:24:51.514Z,10.20
2023-03-19T20:27:26.331Z,10.10
2023-03-19T20:29:54.202Z,10.10
2023-03-19T20:32:36.988Z,10.10
2023-03-19T20:35:14.596Z,10.20
2023-03-19T20:37:42.136Z,10.10
2023-03-19T20:40:11.709Z,10.10
2023-03-19T20:42:41.201Z,10.10
2023-03-19T20:45:20.449Z,10.20
2023-03-19T20:47:51.986Z,10.30
2023-03-19T20:50:33.105Z,10.20
2023-03-19T20:53:03.832Z,10.30
2023-03-19T20:55:34.667Z,10.20
2023-03-19T20:58:18.287Z,10.10
2023-03-19T21:00:45.945Z,10.00
2023-03-19T21:03:22.485Z,9.90
2023-03-19T21:06:01.813Z,9.90
2023-03-19T21:08:40.011Z,9.80
2023-03-19T21:11:18.020Z,9.80
2023-03-19T21:13:48.291Z,9.70
2023-03-19T21:16:23.041Z,9.70
2023-03-19T21:18:51.719Z,9.70
2023-03-19T21:21:33.279Z,9.70
2023-03-19T21:24:06.944Z,9.70
2023-03-19T21:26:39.077Z,9.70
2023-03-19T21:29:15.831Z,9.70
2023-03-19T21:31:44.352Z,9.70
2023-03-19T21:34:14.569Z,9.80
2023-03-19T21:36:42.122Z,9.80
2023-03-19T21:39:09.697Z,9.90
2023-03-19T21:41:37.333Z,10.00
2023-03-19T21:44:18.510Z,10.10
2023-03-19T21:46:48.281Z,10.20
2023-03-19T21:49:17.576Z,10.20
2023-03-19T21:51:45.156Z,10.20
2023-03-19T21:54:12.741Z,10.20
2023-03-19T21:56:42.971Z,10.20
2023-03-19T21:59:19.591Z,10.20
2023-03-19T22:01:47.359Z,10.20
2023-03-19T22:04:15.274Z,10.20
2023-03-19T22:06:43.010Z,10.20
2023-03-19T22:09:10.938Z,10.30
2023-03-19T22:11:39.798Z,10.30
2023-03-19T22:14:24.499Z,10.30
2023-03-19T22:16:55.108Z,10.30
2023-03-19T22:19:23.730Z,10.20
2023-03-19T22:21:51.252Z,10.20
2023-03-19T22:24:18.821Z,10.10
2023-03-19T22:26:49.478Z,10.10
2023-03-19T22:29:25.196Z,10.10
2023-03-19T22:31:55.702Z,10.00
2023-03-19T22:34:27.519Z,10.00
2023-03-19T22:36:55.209Z,10.00
2023-03-19T22:39:22.711Z,9.90
2023-03-19T22:41:50.794Z,9.90
2023-03-19T22:44:30.333Z,9.90
2023-03-19T22:47:00.174Z,9.90
2023-03-19T22:49:29.623Z,9.90
2023-03-19T22:51:57.607Z,9.90
2023-03-19T22:54:26.060Z,9.90
2023-03-19T22:56:53.773Z,10.00
2023-03-19T22:59:21.545Z,10.00
2023-03-19T23:01:49.411Z,9.90
2023-03-19T23:04:29.557Z,9.90
2023-03-19T23:06:59.983Z,9.90
2023-03-19T23:09:32.097Z,9.80
2023-03-19T23:12:00.150Z,9.80
2023-03-19T23:14:30.620Z,9.90
2023-03-19T23:17:03.426Z,9.90
2023-03-19T23:19:37.161Z,10.00
2023-03-19T23:22:13.402Z,9.90
2023-03-19T23:24:42.217Z,9.80
2023-03-19T23:27:25.963Z,9.80
2023-03-19T23:29:54.481Z,9.90
2023-03-19T23:32:22.521Z,10.00
2023-03-19T23:34:59.413Z,10.00
2023-03-19T23:37:29.025Z,10.00
2023-03-19T23:39:57.722Z,10.00
2023-03-19T23:42:30.037Z,10.10
2023-03-19T23:45:02.004Z,10.10
2023-03-19T23:47:30.530Z,10.10
2023-03-19T23:49:58.477Z,10.00
2023-03-19T23:52:26.075Z,10.00
2023-03-19T23:54:53.638Z,9.80
2023-03-19T23:57:26.683Z,9.80
2023-03-19T23:59:54.585Z,9.90
